createdAt,value
2024-05-09T00:01:14.486Z,12.3
2024-05-09T00:02:55.125Z,12.2
2024-05-09T00:04:35.698Z,12.3
2024-05-09T00:06:16.497Z,12.3
2024-05-09T00:07:57.105Z,12.3
2024-05-09T00:09:37.588Z,12.3
2024-05-09T00:11:18.483Z,12.3
2024-05-09T00:12:58.994Z,12.3
2024-05-09T00:14:39.569Z,12.3
2024-05-09T00:16:20.116Z,12.3
2024-05-09T00:18:01.593Z,12.3
2024-05-09T00:19:42.384Z,12.3
2024-05-09T00:21:22.916Z,12.3
2024-05-09T00:23:03.781Z,12.3
2024-05-09T00:24:44.303Z,12.3
2024-05-09T00:26:25.107Z,12.3
2024-05-09T00:28:05.718Z,12.3
2024-05-09T00:29:46.251Z,12.3
2024-05-09T00:31:26.777Z,12.3
2024-05-09T00:33:11.874Z,12.3
2024-05-09T00:34:52.698Z,12.3
2024-05-09T00:36:33.150Z,12.3
2024-05-09T00:38:13.752Z,12.3
2024-05-09T00:39:54.367Z,12.3
2024-05-09T00:43:32.180Z,12.3
2024-05-09T00:45:12.644Z,12.3
2024-05-09T00:46:53.283Z,12.3
2024-05-09T00:48:34.302Z,12.3
2024-05-09T00:50:35.191Z,12.3
2024-05-09T00:52:17.384Z,12.3
2024-05-09T00:53:57.870Z,12.3
2024-05-09T00:55:38.311Z,12.3
2024-05-09T00:57:18.751Z,12.3
2024-05-09T00:58:59.350Z,12.3
2024-05-09T01:00:43.416Z,12.3
2024-05-09T01:02:24.308Z,12.3
2024-05-09T01:04:05.242Z,12.3
2024-05-09T01:05:46.382Z,12.3
2024-05-09T01:07:27.054Z,12.3
2024-05-09T01:09:07.583Z,12.3
2024-05-09T01:10:51.148Z,12.3
2024-05-09T01:12:31.927Z,12.3
2024-05-09T01:14:12.525Z,12.3
2024-05-09T01:15:52.992Z,12.3
2024-05-09T01:17:34.169Z,12.3
2024-05-09T01:19:15.160Z,12.3
2024-05-09T01:20:55.800Z,12.3
2024-05-09T01:22:36.362Z,12.3
2024-05-09T01:24:16.798Z,12.3
2024-05-09T01:25:57.391Z,12.3
2024-05-09T01:27:37.950Z,12.3
2024-05-09T01:29:18.593Z,12.3
2024-05-09T01:30:59.129Z,12.3
2024-05-09T01:32:40.014Z,12.3
2024-05-09T01:34:20.752Z,12.3
2024-05-09T01:36:01.317Z,12.3
2024-05-09T01:37:41.809Z,12.3
2024-05-09T01:39:22.228Z,12.3
2024-05-09T01:41:02.838Z,12.3
2024-05-09T01:42:43.442Z,12.4
2024-05-09T01:44:24.118Z,12.3
2024-05-09T01:46:04.693Z,12.3
2024-05-09T01:47:46.040Z,12.3
2024-05-09T01:49:27.052Z,12.3
2024-05-09T01:51:07.635Z,12.3
2024-05-09T01:52:48.447Z,12.3
2024-05-09T01:54:29.083Z,12.3
2024-05-09T01:56:09.728Z,12.3
2024-05-09T01:57:50.331Z,12.3
2024-05-09T01:59:31.385Z,12.3
2024-05-09T02:03:20.737Z,12.3
2024-05-09T02:05:01.820Z,12.3
2024-05-09T02:06:42.396Z,12.3
2024-05-09T02:08:23.815Z,12.3
2024-05-09T02:10:16.393Z,12.3
2024-05-09T02:12:01.567Z,12.3
2024-05-09T02:13:42.235Z,12.3
2024-05-09T02:15:22.777Z,12.3
2024-05-09T02:17:03.463Z,12.3
2024-05-09T02:18:44.316Z,12.4
2024-05-09T02:20:38.229Z,12.4
2024-05-09T02:22:18.749Z,12.3
2024-05-09T02:23:59.221Z,12.4
2024-05-09T02:25:39.732Z,12.3
2024-05-09T02:27:20.234Z,12.3
2024-05-09T02:29:01.164Z,12.4
2024-05-09T02:30:44.474Z,12.4
2024-05-09T02:32:25.351Z,12.4
2024-05-09T02:34:06.724Z,12.4
2024-05-09T02:35:47.401Z,12.4
2024-05-09T02:37:27.864Z,12.4
2024-05-09T02:39:08.330Z,12.4
2024-05-09T02:40:48.903Z,12.4
2024-05-09T02:42:29.448Z,12.3
2024-05-09T02:44:10.367Z,12.4
2024-05-09T02:45:50.893Z,12.4
2024-05-09T02:47:31.978Z,12.4
2024-05-09T02:49:13.463Z,12.4
2024-05-09T02:50:54.305Z,12.4
2024-05-09T02:52:34.856Z,12.4
2024-05-09T02:54:15.306Z,12.4
2024-05-09T02:55:56.120Z,12.4
2024-05-09T02:57:36.873Z,12.4
2024-05-09T02:59:17.522Z,12.4
2024-05-09T03:00:58.250Z,12.4
2024-05-09T03:02:38.951Z,12.4
2024-05-09T03:04:19.604Z,12.4
2024-05-09T03:06:00.182Z,12.4
2024-05-09T03:07:40.690Z,12.4
2024-05-09T03:09:21.143Z,12.4
2024-05-09T03:11:01.728Z,12.4
2024-05-09T03:12:42.416Z,12.4
2024-05-09T03:14:23.244Z,12.4
2024-05-09T03:16:03.806Z,12.4
2024-05-09T03:17:45.093Z,12.4
2024-05-09T03:19:25.969Z,12.4
2024-05-09T03:21:07.035Z,12.4
2024-05-09T03:22:47.922Z,12.4
2024-05-09T03:24:28.447Z,12.4
2024-05-09T03:26:08.946Z,12.4
2024-05-09T03:27:49.430Z,12.4
2024-05-09T03:29:30.153Z,12.4
2024-05-09T03:31:10.753Z,12.4
2024-05-09T03:32:51.921Z,12.4
2024-05-09T03:34:32.571Z,12.4
2024-05-09T03:36:13.716Z,12.4
2024-05-09T03:37:54.320Z,12.4
2024-05-09T03:39:34.942Z,12.4
2024-05-09T03:41:15.652Z,12.4
2024-05-09T03:42:56.205Z,12.4
2024-05-09T03:44:37.271Z,12.4
2024-05-09T03:46:18.801Z,12.4
2024-05-09T06:41:37.239Z,12.4
2024-05-09T06:43:21.529Z,12.4
2024-05-09T06:45:02.095Z,12.4
2024-05-09T06:46:42.761Z,12.4
2024-05-09T06:48:25.055Z,12.4
2024-05-09T06:50:19.675Z,12.4
2024-05-09T06:52:04.420Z,12.4
2024-05-09T06:53:44.980Z,12.4
2024-05-09T06:55:25.540Z,12.4
2024-05-09T06:57:06.035Z,12.4
2024-05-09T06:58:46.672Z,12.4
2024-05-09T07:00:42.293Z,12.4
2024-05-09T07:02:23.324Z,12.4
2024-05-09T07:04:04.468Z,12.4
2024-05-09T07:05:46.756Z,12.4
2024-05-09T07:07:28.172Z,12.4
2024-05-09T07:09:08.652Z,12.4
2024-05-09T07:10:49.686Z,12.4
2024-05-09T07:12:30.595Z,12.4
2024-05-09T07:14:11.326Z,12.4
2024-05-09T07:15:51.678Z,12.4
2024-05-09T07:17:32.772Z,12.4
2024-05-09T07:19:14.148Z,12.4
2024-05-09T07:20:54.879Z,12.4
2024-05-09T07:22:35.422Z,12.4
2024-05-09T07:24:15.914Z,12.4
2024-05-09T07:25:56.743Z,12.4
2024-05-09T07:27:37.520Z,12.4
2024-05-09T07:29:18.191Z,12.4
2024-05-09T07:30:58.746Z,12.4
2024-05-09T07:32:39.482Z,12.4
2024-05-09T07:34:20.871Z,12.4
2024-05-09T07:36:01.457Z,12.4
2024-05-09T07:37:41.953Z,12.4
2024-05-09T07:39:22.495Z,12.6
2024-05-09T07:41:03.232Z,12.7
2024-05-09T07:42:43.807Z,12.7
2024-05-09T07:44:27.241Z,12.6
2024-05-09T07:53:46.510Z,12.2
2024-05-09T07:55:31.475Z,12.3
2024-05-09T07:57:12.391Z,12.3
2024-05-09T07:58:54.352Z,12.1
2024-05-09T08:00:35.522Z,12.1
2024-05-09T08:03:22.300Z,12.1
2024-05-09T08:05:03.335Z,12.1
2024-05-09T08:06:43.943Z,12.1
2024-05-09T08:08:24.595Z,12.1
2024-05-09T08:10:12.713Z,12.4
2024-05-09T08:11:53.508Z,12.6
2024-05-09T08:13:34.088Z,12.5
2024-05-09T08:15:14.661Z,12.6
2024-05-09T08:16:55.303Z,12.6
2024-05-09T08:18:36.574Z,12.6
2024-05-09T08:20:35.403Z,12.6
2024-05-09T08:22:16.217Z,12.6
2024-05-09T08:23:56.799Z,12.6
2024-05-09T08:25:37.329Z,12.6
2024-05-09T08:27:17.897Z,12.6
2024-05-09T08:28:58.471Z,12.6
2024-05-09T08:30:40.971Z,12.6
2024-05-09T08:32:21.629Z,12.6
2024-05-09T08:34:02.569Z,12.6
2024-05-09T08:35:43.255Z,12.6
2024-05-09T08:37:37.814Z,12.6
2024-05-09T08:39:20.408Z,12.6
2024-05-09T08:41:00.960Z,12.6
2024-05-09T08:42:41.536Z,12.6
2024-05-09T08:44:22.138Z,12.6
2024-05-09T08:46:02.785Z,12.6
2024-05-09T08:47:43.418Z,12.6
2024-05-09T08:49:24.153Z,12.6
2024-05-09T08:51:04.776Z,12.6
2024-05-09T08:52:45.318Z,12.6
2024-05-09T08:54:25.784Z,12.6
2024-05-09T08:56:06.348Z,12.6
2024-05-09T08:57:48.311Z,12.6
2024-05-09T08:59:29.493Z,12.6
2024-05-09T09:01:10.373Z,12.6
2024-05-09T09:02:51.052Z,12.6
2024-05-09T09:04:31.976Z,12.3
2024-05-09T09:06:12.731Z,11.8
2024-05-09T09:07:53.202Z,11.8
2024-05-09T09:09:33.850Z,11.8
2024-05-09T09:11:14.519Z,11.8
2024-05-09T09:12:55.061Z,11.8
2024-05-09T09:14:35.575Z,11.8
2024-05-09T09:16:16.587Z,11.9
2024-05-09T09:17:57.444Z,11.9
2024-05-09T09:19:38.356Z,11.9
2024-05-09T09:21:18.891Z,11.9
2024-05-09T09:22:59.421Z,11.9
2024-05-09T09:24:40.017Z,11.9
2024-05-09T09:26:20.561Z,12
2024-05-09T09:28:01.499Z,12
2024-05-09T09:29:42.005Z,12
2024-05-09T09:31:22.672Z,12
2024-05-09T09:33:03.693Z,11.6
2024-05-09T09:34:44.343Z,12.1
2024-05-09T09:36:24.963Z,12.2
2024-05-09T09:38:05.788Z,12.4
2024-05-09T09:39:51.396Z,12.4
2024-05-09T09:41:31.948Z,12.4
2024-05-09T09:43:12.856Z,12.4
2024-05-09T09:45:06.965Z,12.4
2024-05-09T09:46:47.552Z,12.4
2024-05-09T09:48:28.246Z,12.4
2024-05-09T09:50:24.012Z,12.4
2024-05-09T09:52:13.716Z,12.4
2024-05-09T09:54:11.393Z,12.4
2024-05-09T09:55:51.933Z,12.2
2024-05-09T09:57:32.555Z,12.2
2024-05-09T09:59:13.032Z,12.2
2024-05-09T10:00:54.103Z,12.2
2024-05-09T10:02:35.177Z,12.3
2024-05-09T10:04:16.072Z,12.4
2024-05-09T10:05:56.801Z,12.3
2024-05-09T10:07:37.359Z,12.3
2024-05-09T10:09:17.916Z,12.3
2024-05-09T10:10:58.736Z,12.4
2024-05-09T10:12:39.570Z,12.4
2024-05-09T10:14:20.107Z,12.4
2024-05-09T10:16:00.952Z,12.4
2024-05-09T10:17:41.907Z,12.4
2024-05-09T10:19:22.879Z,12.1
2024-05-09T10:21:03.376Z,12
2024-05-09T10:22:43.914Z,12
2024-05-09T10:24:24.528Z,12
2024-05-09T10:26:05.999Z,12.1
2024-05-09T10:27:46.913Z,12.1
2024-05-09T10:29:27.394Z,12.1
2024-05-09T10:31:08.095Z,12.1
2024-05-09T10:32:49.204Z,12.1
2024-05-09T10:34:30.122Z,12.1
2024-05-09T10:36:10.648Z,12.1
2024-05-09T10:37:51.204Z,12.1
2024-05-09T10:39:31.881Z,12.1
2024-05-09T10:41:12.397Z,12.2
2024-05-09T10:42:53.117Z,12.2
2024-05-09T10:44:33.628Z,12.2
2024-05-09T10:46:14.836Z,12.2
2024-05-09T10:47:55.896Z,12.2
2024-05-09T10:49:36.546Z,12.2
2024-05-09T10:51:17.092Z,12.2
2024-05-09T10:52:57.676Z,12.2
2024-05-09T10:54:38.290Z,12.2
2024-05-09T10:56:19.127Z,12.2
2024-05-09T10:57:59.757Z,12.2
2024-05-09T10:59:40.279Z,11.9
2024-05-09T11:01:21.144Z,11.7
2024-05-09T11:03:01.855Z,11.7
2024-05-09T11:04:42.607Z,11.7
2024-05-09T11:06:23.195Z,11.8
2024-05-09T11:08:03.698Z,11.8
2024-05-09T11:09:44.419Z,11.8
2024-05-09T11:11:25.014Z,11.9
2024-05-09T11:13:05.876Z,12.3
2024-05-09T11:14:46.339Z,12.4
2024-05-09T11:16:27.098Z,12.4
2024-05-09T11:18:08.080Z,12.8
2024-05-09T11:19:48.812Z,12.8
2024-05-09T11:21:29.487Z,12.6
2024-05-09T11:23:10.178Z,12.6
2024-05-09T11:24:50.807Z,12.4
2024-05-09T11:26:31.379Z,12.2
2024-05-09T11:28:12.279Z,12.2
2024-05-09T11:29:52.935Z,12.2
2024-05-09T11:31:34.364Z,12.2
2024-05-09T11:33:15.319Z,12.2
2024-05-09T11:34:55.822Z,12.3
2024-05-09T11:36:36.674Z,12.3
2024-05-09T11:38:17.235Z,12.3
2024-05-09T11:39:57.873Z,12.2
2024-05-09T11:43:36.394Z,11.8
2024-05-09T11:45:16.893Z,11.9
2024-05-09T11:46:57.435Z,11.9
2024-05-09T11:48:38.657Z,12.3
2024-05-09T11:50:36.479Z,12.2
2024-05-09T11:52:17.585Z,12.2
2024-05-09T11:53:58.199Z,12.2
2024-05-09T11:55:39.120Z,12.2
2024-05-09T11:57:19.636Z,12.2
2024-05-09T11:59:00.178Z,12.2
2024-05-09T12:00:40.825Z,12.2
2024-05-09T12:02:22.115Z,12.2
2024-05-09T12:04:03.888Z,12.3
2024-05-09T12:05:45.417Z,12.1
2024-05-09T12:07:26.530Z,12.1
2024-05-09T12:09:07.141Z,12.1
2024-05-09T12:10:48.349Z,12.1
2024-05-09T12:12:29.018Z,12.1
2024-05-09T12:14:09.512Z,12.1
2024-05-09T12:15:50.184Z,12.2
2024-05-09T12:17:31.150Z,12.2
2024-05-09T12:19:12.311Z,12.2
2024-05-09T12:20:52.879Z,12.2
2024-05-09T12:22:33.421Z,12.2
2024-05-09T12:24:19.772Z,12.2
2024-05-09T12:26:00.330Z,12.1
2024-05-09T12:27:40.828Z,12.9
2024-05-09T12:29:21.372Z,13
2024-05-09T12:31:02.174Z,13
2024-05-09T12:32:43.028Z,13
2024-05-09T12:34:23.826Z,13
2024-05-09T12:36:04.436Z,13
2024-05-09T12:37:45.320Z,13
2024-05-09T12:39:25.870Z,13
2024-05-09T12:41:06.608Z,13
2024-05-09T12:42:47.243Z,13
2024-05-09T12:44:27.744Z,13
2024-05-09T12:46:08.493Z,13
2024-05-09T12:47:49.319Z,13
2024-05-09T12:49:30.601Z,13
2024-05-09T12:51:11.183Z,13
2024-05-09T12:52:51.992Z,12.9
2024-05-09T12:54:32.616Z,12.9
2024-05-09T12:56:13.135Z,12.9
2024-05-09T12:57:53.840Z,12.9
2024-05-09T12:59:34.404Z,12.9
2024-05-09T13:01:15.180Z,12.9
2024-05-09T13:02:55.876Z,12.2
2024-05-09T13:04:37.171Z,12.1
2024-05-09T13:06:17.823Z,12.1
2024-05-09T13:07:58.596Z,12.1
2024-05-09T13:09:39.166Z,12
2024-05-09T13:11:19.973Z,12.3
2024-05-09T13:13:01.678Z,12.8
2024-05-09T13:14:42.688Z,12.8
2024-05-09T13:16:23.479Z,12.6
2024-05-09T13:18:06.045Z,12.5
2024-05-09T13:19:46.697Z,12.6
2024-05-09T13:21:27.208Z,12.6
2024-05-09T13:23:09.962Z,12.6
2024-05-09T13:24:50.540Z,12.6
2024-05-09T13:26:31.192Z,12.6
2024-05-09T13:28:11.865Z,12.6
2024-05-09T13:29:52.314Z,12.6
2024-05-09T13:31:33.125Z,12.6
2024-05-09T13:33:31.181Z,12.6
2024-05-09T13:35:11.880Z,12.6
2024-05-09T13:36:52.470Z,12.4
2024-05-09T13:38:33.043Z,12.5
2024-05-09T13:40:32.520Z,12.4
2024-05-09T13:42:15.548Z,12.4
2024-05-09T13:43:56.107Z,12.4
2024-05-09T13:45:36.970Z,12.3
2024-05-09T13:47:17.670Z,12.3
2024-05-09T13:48:58.391Z,12.3
2024-05-09T13:50:39.672Z,12.4
2024-05-09T13:52:20.411Z,12.4
2024-05-09T13:54:00.926Z,12.4
2024-05-09T13:55:42.146Z,12.4
2024-05-09T13:57:22.634Z,12.4
2024-05-09T13:59:03.207Z,12.4
2024-05-09T14:00:51.084Z,12.4
2024-05-09T14:03:26.705Z,12.4
2024-05-09T14:05:07.669Z,12.4
2024-05-09T14:06:48.409Z,12.3
2024-05-09T14:08:28.975Z,12.1
2024-05-09T14:10:31.241Z,12.1
2024-05-09T14:12:13.904Z,12.1
2024-05-09T14:13:54.401Z,12.1
2024-05-09T14:15:35.013Z,12.2
2024-05-09T14:17:15.752Z,12.2
2024-05-09T14:18:56.468Z,12.2
2024-05-09T14:20:37.023Z,12.2
2024-05-09T14:22:17.795Z,12.2
2024-05-09T14:23:58.354Z,12.2
2024-05-09T14:25:47.208Z,12.2
2024-05-09T14:27:29.500Z,12.2
2024-05-09T14:29:09.946Z,12.2
2024-05-09T14:30:50.675Z,12.3
2024-05-09T14:32:31.503Z,12.3
2024-05-09T14:34:12.882Z,12.3
2024-05-09T14:35:53.545Z,12.3
2024-05-09T14:37:38.646Z,12.3
2024-05-09T14:39:20.156Z,12.3
2024-05-09T14:41:01.214Z,12.4
2024-05-09T14:42:41.775Z,12.4
2024-05-09T14:44:22.409Z,12.4
2024-05-09T14:46:03.170Z,12.4
2024-05-09T14:47:44.363Z,12.4
2024-05-09T14:49:25.114Z,12.4
2024-05-09T14:51:05.593Z,12.4
2024-05-09T14:52:46.262Z,12.4
2024-05-09T14:54:26.731Z,12.4
2024-05-09T14:56:07.283Z,12.4
2024-05-09T14:57:47.907Z,12.4
2024-05-09T14:59:28.427Z,12.4
2024-05-09T15:01:09.220Z,12.4
2024-05-09T15:02:51.228Z,12.4
2024-05-09T15:04:32.277Z,12.4
2024-05-09T15:06:13.261Z,11.8
2024-05-09T15:07:56.346Z,12.6
2024-05-09T15:09:36.952Z,12.8
2024-05-09T15:11:17.507Z,12.7
2024-05-09T15:12:58.179Z,12.5
2024-05-09T15:14:38.737Z,12.5
2024-05-09T15:16:19.398Z,12.5
2024-05-09T15:18:00.957Z,12.5
2024-05-09T15:19:42.206Z,12.5
2024-05-09T15:21:22.708Z,12.5
2024-05-09T15:23:04.096Z,12.6
2024-05-09T15:24:44.681Z,12.6
2024-05-09T15:26:25.201Z,12.6
2024-05-09T15:28:06.356Z,12.5
2024-05-09T15:29:46.930Z,12.6
2024-05-09T15:31:27.649Z,12.6
2024-05-09T15:33:09.894Z,12.6
2024-05-09T15:34:50.444Z,12.6
2024-05-09T15:36:31.339Z,12.6
2024-05-09T15:38:11.955Z,12.6
2024-05-09T15:39:52.445Z,12.6
2024-05-09T15:41:33.154Z,12.6
2024-05-09T15:43:14.447Z,12.6
2024-05-09T15:44:54.933Z,12.6
2024-05-09T15:46:35.639Z,12.8
2024-05-09T15:48:16.473Z,12.8
2024-05-09T15:49:57.379Z,12.6
2024-05-09T15:51:38.192Z,12.5
2024-05-09T15:51:55.276Z,12.5
2024-05-09T15:53:35.765Z,12.5
2024-05-09T15:55:16.594Z,12.5
2024-05-09T15:56:57.186Z,12.5
2024-05-09T15:58:37.729Z,12.5
2024-05-09T16:00:41.563Z,12.5
2024-05-09T16:02:24.588Z,12.5
2024-05-09T16:04:05.806Z,12.5
2024-05-09T16:05:48.829Z,12.5
2024-05-09T16:07:29.612Z,12.5
2024-05-09T16:09:10.185Z,12.5
2024-05-09T16:10:51.364Z,12.5
2024-05-09T16:12:32.105Z,12.6
2024-05-09T16:14:12.666Z,12.5
2024-05-09T16:15:53.879Z,12.6
2024-05-09T16:17:34.733Z,12.6
2024-05-09T16:19:15.794Z,12.6
2024-05-09T16:20:56.429Z,12.6
2024-05-09T16:22:36.965Z,12.6
2024-05-09T16:24:17.619Z,12.6
2024-05-09T16:25:58.189Z,12.6
2024-05-09T16:27:38.759Z,12.6
2024-05-09T16:29:19.309Z,12.6
2024-05-09T16:30:59.970Z,12.6
2024-05-09T16:32:40.763Z,12.6
2024-05-09T16:34:21.788Z,12.6
2024-05-09T16:36:02.264Z,12.6
2024-05-09T16:37:42.820Z,12.6
2024-05-09T16:39:23.545Z,12.6
2024-05-09T16:41:04.059Z,12.6
2024-05-09T16:42:44.751Z,12.6
2024-05-09T16:44:25.246Z,12.6
2024-05-09T16:46:06.144Z,12.6
2024-05-09T16:47:46.889Z,12.6
2024-05-09T16:49:28.088Z,12.6
2024-05-09T16:51:08.613Z,12.6
2024-05-09T16:52:49.234Z,12.6
2024-05-09T16:54:29.782Z,12.6
2024-05-09T16:56:10.302Z,12.6
2024-05-09T16:57:50.977Z,12.6
2024-05-09T16:59:33.467Z,12.6
2024-05-09T17:01:14.658Z,12.6
2024-05-09T17:02:55.388Z,12.4
2024-05-09T17:04:36.582Z,12.2
2024-05-09T17:06:17.231Z,12.2
2024-05-09T17:07:57.781Z,12.3
2024-05-09T17:09:38.986Z,12.3
2024-05-09T17:11:19.708Z,12.3
2024-05-09T17:13:00.433Z,12.3
2024-05-09T17:14:40.983Z,12.4
2024-05-09T17:16:21.729Z,12.4
2024-05-09T17:18:02.817Z,12.4
2024-05-09T17:19:43.437Z,12.4
2024-05-09T17:21:23.993Z,12.6
2024-05-09T17:23:05.806Z,12.8
2024-05-09T17:24:47.271Z,12.8
2024-05-09T17:26:28.833Z,12.9
2024-05-09T17:28:11.203Z,12.8
2024-05-09T17:29:52.112Z,12.6
2024-05-09T17:31:32.790Z,12.5
2024-05-09T17:33:15.563Z,12.5
2024-05-09T17:34:56.486Z,12.5
2024-05-09T17:36:37.151Z,12.6
2024-05-09T17:38:17.717Z,12.4
2024-05-09T17:39:59.406Z,12.6
2024-05-09T17:40:34.090Z,12.6
2024-05-09T17:42:16.962Z,12.6
2024-05-09T17:43:57.549Z,12.6
2024-05-09T17:45:38.667Z,12.6
2024-05-09T17:47:19.669Z,12.6
2024-05-09T17:49:03.710Z,12.6
2024-05-09T17:50:44.805Z,12.6
2024-05-09T17:52:25.762Z,12.7
2024-05-09T17:54:06.298Z,12.7
2024-05-09T17:55:46.963Z,12.7
2024-05-09T17:57:27.436Z,12.7
2024-05-09T17:59:12.865Z,12.7
2024-05-09T18:00:53.792Z,12.7
2024-05-09T18:02:34.511Z,12.7
2024-05-09T18:04:15.486Z,12.7
2024-05-09T18:05:56.597Z,12.8
2024-05-09T18:07:37.129Z,12.8
2024-05-09T18:09:18.695Z,12.8
2024-05-09T18:10:59.521Z,12.8
2024-05-09T18:12:40.144Z,12.8
2024-05-09T18:14:20.754Z,12.8
2024-05-09T18:16:01.401Z,12.8
2024-05-09T18:17:43.034Z,12.8
2024-05-09T18:19:24.215Z,12.8
2024-05-09T18:21:04.777Z,12.8
2024-05-09T18:22:46.323Z,12.8
2024-05-09T18:24:26.953Z,12.8
2024-05-09T18:26:07.571Z,12.8
2024-05-09T18:27:48.209Z,12.8
2024-05-09T18:29:28.797Z,12.8
2024-05-09T18:31:09.565Z,12.8
2024-05-09T18:32:50.409Z,12.8
2024-05-09T18:34:33.936Z,12.8
2024-05-09T18:36:17.239Z,12.8
2024-05-09T18:37:57.806Z,12.8
2024-05-09T18:39:38.578Z,12.8
2024-05-09T18:41:19.210Z,12.8
2024-05-09T18:43:02.469Z,12.8
2024-05-09T18:44:43.129Z,12.8
2024-05-09T18:46:23.926Z,12.8
2024-05-09T18:48:05.291Z,12.8
2024-05-09T18:49:46.678Z,12.9
2024-05-09T18:51:27.280Z,12.9
2024-05-09T18:53:08.113Z,12.9
2024-05-09T18:54:48.907Z,12.9
2024-05-09T18:56:29.511Z,12.9
2024-05-09T18:58:10.489Z,12.9
2024-05-09T18:59:51.003Z,12.9
2024-05-09T19:01:32.211Z,12.9
2024-05-09T19:03:16.952Z,12.9
2024-05-09T19:04:57.864Z,12.9
2024-05-09T19:06:38.713Z,12.9
2024-05-09T19:08:19.244Z,12.9
2024-05-09T19:10:00.159Z,12.8
2024-05-09T19:11:40.907Z,12
2024-05-09T19:13:22.688Z,12
2024-05-09T19:15:03.184Z,12.4
2024-05-09T19:16:43.772Z,12.7
2024-05-09T19:18:26.038Z,12.6
2024-05-09T19:20:20.186Z,12.6
2024-05-09T19:22:05.915Z,12.4
2024-05-09T19:23:54.207Z,12.4
2024-05-09T19:25:35.797Z,12.4
2024-05-09T19:27:16.951Z,12.4
2024-05-09T19:28:57.518Z,12.4
2024-05-09T19:29:14.820Z,12.4
2024-05-09T19:30:55.311Z,12.4
2024-05-09T19:32:38.088Z,12.4
2024-05-09T19:34:21.555Z,12.5
2024-05-09T19:36:03.378Z,12.5
2024-05-09T19:37:46.111Z,12.5
2024-05-09T19:39:26.958Z,12.5
2024-05-09T19:42:41.775Z,12.5
2024-05-09T19:44:22.329Z,12.5
2024-05-09T19:46:02.954Z,12.6
2024-05-09T19:47:44.726Z,12.6
2024-05-09T19:49:25.963Z,12.6
2024-05-09T19:51:06.683Z,12.6
2024-05-09T19:52:47.142Z,12.6
2024-05-09T19:54:27.711Z,12.6
2024-05-09T19:56:08.245Z,12.6
2024-05-09T19:57:48.966Z,12.6
2024-05-09T19:59:29.504Z,12.6
2024-05-09T20:01:10.375Z,12.6
2024-05-09T20:02:51.732Z,12.6
2024-05-09T20:04:33.324Z,12.6
2024-05-09T20:06:14.878Z,12.6
2024-05-09T20:07:55.450Z,12.6
2024-05-09T20:09:38.782Z,12.6
2024-05-09T20:11:19.423Z,12.6
2024-05-09T20:13:00.251Z,12.6
2024-05-09T20:14:40.848Z,12.6
2024-05-09T20:16:21.803Z,12.6
2024-05-09T20:18:04.470Z,12.6
2024-05-09T20:19:48.351Z,12.6
2024-05-09T20:21:28.826Z,12.6
2024-05-09T20:23:09.986Z,12.6
2024-05-09T20:24:51.765Z,12.6
2024-05-09T20:26:33.311Z,12.6
2024-05-09T20:28:14.945Z,12.6
2024-05-09T20:29:55.493Z,12.6
2024-05-09T20:31:36.112Z,12.6
2024-05-09T20:33:16.818Z,12.6
2024-05-09T20:34:57.398Z,12.6
2024-05-09T20:36:38.091Z,12.6
2024-05-09T20:38:18.632Z,12.6
2024-05-09T20:39:59.152Z,12.6
2024-05-09T20:41:39.792Z,12.6
2024-05-09T20:43:21.814Z,12.6
2024-05-09T20:45:02.268Z,12.6
2024-05-09T20:46:42.807Z,12.6
2024-05-09T20:48:23.948Z,12.6
2024-05-09T20:50:11.270Z,12.6
2024-05-09T20:51:56.940Z,12.6
2024-05-09T20:53:37.443Z,12.6
2024-05-09T20:55:18.219Z,12.7
2024-05-09T20:56:58.747Z,12.6
2024-05-09T20:58:39.438Z,12.6
2024-05-09T21:00:38.490Z,12.6
2024-05-09T21:03:20.199Z,12.6
2024-05-09T21:05:01.217Z,12.7
2024-05-09T21:06:41.863Z,12.7
2024-05-09T21:08:23.945Z,12.6
2024-05-09T21:10:15.169Z,12.7
2024-05-09T21:11:59.839Z,12.7
2024-05-09T21:13:40.438Z,12.7
2024-05-09T21:15:21.186Z,12.7
2024-05-09T21:17:02.155Z,12.7
2024-05-09T21:18:42.996Z,12.7
2024-05-09T21:20:37.219Z,12.7
2024-05-09T21:22:18.035Z,12.7
2024-05-09T21:23:58.630Z,12.7
2024-05-09T21:25:39.144Z,12.7
2024-05-09T21:27:19.945Z,12.7
2024-05-09T21:29:00.477Z,12.7
2024-05-09T21:30:45.538Z,12.7
2024-05-09T21:32:26.414Z,12.7
2024-05-09T21:34:07.319Z,12.7
2024-05-09T21:35:47.886Z,12.7
2024-05-09T21:37:28.407Z,12.7
2024-05-09T21:39:08.931Z,12.7
2024-05-09T21:40:49.888Z,12.7
2024-05-09T21:42:30.521Z,12.7
2024-05-09T21:44:11.039Z,12.7
2024-05-09T21:45:51.903Z,12.7
2024-05-09T21:47:32.970Z,12.7
2024-05-09T21:49:13.709Z,12.7
2024-05-09T21:50:54.253Z,12.7
2024-05-09T21:52:34.733Z,12.7
2024-05-09T21:54:15.199Z,12.7
2024-05-09T21:55:57.222Z,12.7
2024-05-09T21:57:38.061Z,12.7
2024-05-09T21:59:18.599Z,12.7
2024-05-09T22:00:59.502Z,12.7
2024-05-09T22:02:40.374Z,12.7
2024-05-09T22:04:21.264Z,12.7
2024-05-09T22:06:01.873Z,12.7
2024-05-09T22:07:42.345Z,12.7
2024-05-09T22:09:22.792Z,12.7
2024-05-09T22:11:03.599Z,12.7
2024-05-09T22:12:44.309Z,12.7
2024-05-09T22:14:24.856Z,12.7
2024-05-09T22:16:05.519Z,12.7
2024-05-09T22:17:46.642Z,12.7
2024-05-09T22:19:27.372Z,12.7
2024-05-09T22:21:07.917Z,12.7
2024-05-09T22:22:48.420Z,12.7
2024-05-09T22:24:28.929Z,12.7
2024-05-09T22:26:09.379Z,12.7
2024-05-09T22:27:50.121Z,12.7
2024-05-09T22:29:30.580Z,12.7
2024-05-09T22:31:11.492Z,12.7
2024-05-09T22:32:52.395Z,12.7
2024-05-09T22:34:33.293Z,12.7
2024-05-09T22:36:13.740Z,12.7
2024-05-09T22:37:54.212Z,12.8
2024-05-09T22:39:34.728Z,12.7
2024-05-09T22:41:15.237Z,12.8
2024-05-09T22:42:55.773Z,12.8
2024-05-09T22:44:36.327Z,12.8
2024-05-09T22:46:16.884Z,12.8
2024-05-09T22:47:58.009Z,12.8
2024-05-09T22:49:38.726Z,12.7
2024-05-09T22:51:19.193Z,12.7
2024-05-09T22:52:59.626Z,12.8
2024-05-09T22:54:57.188Z,12.8
2024-05-09T22:56:37.663Z,12.8
2024-05-09T22:58:18.471Z,12.8
2024-05-09T22:59:59.102Z,12.8
2024-05-09T23:01:40.027Z,12.8
2024-05-09T23:03:21.464Z,12.8
2024-05-09T23:05:02.936Z,12.8
2024-05-09T23:06:43.648Z,12.8
2024-05-09T23:08:24.282Z,12.8
2024-05-09T23:10:21.663Z,12.8
2024-05-09T23:12:08.961Z,12.8
2024-05-09T23:13:49.444Z,12.8
2024-05-09T23:15:29.930Z,12.8
2024-05-09T23:17:10.766Z,12.8
2024-05-09T23:18:51.649Z,12.8
2024-05-09T23:20:41.638Z,12.8
2024-05-09T23:22:22.306Z,12.8
2024-05-09T23:24:02.832Z,12.8
2024-05-09T23:25:43.686Z,12.8
2024-05-09T23:27:24.328Z,12.8
2024-05-09T23:29:05.030Z,12.8
2024-05-09T23:30:45.579Z,12.8
2024-05-09T23:32:26.378Z,12.8
2024-05-09T23:34:07.401Z,12.8
2024-05-09T23:35:47.959Z,12.8
2024-05-09T23:37:28.534Z,12.8
2024-05-09T23:39:09.150Z,12.8
2024-05-09T23:40:49.841Z,12.8
2024-05-09T23:42:30.415Z,12.8
2024-05-09T23:44:10.848Z,12.8
2024-05-09T23:45:51.488Z,12.8
2024-05-09T23:47:32.294Z,12.8
2024-05-09T23:49:12.914Z,12.8
2024-05-09T23:50:53.660Z,12.8
2024-05-09T23:52:34.185Z,12.8
2024-05-09T23:54:14.618Z,12.8
2024-05-09T23:55:55.066Z,12.8
2024-05-09T23:57:35.666Z,12.8
2024-05-09T23:59:16.179Z,12.8
